Time;durP1;ratioP1;P1;durP2;ratioP2;P2;SDS_P1;SDS_P2;PMS_P1;PMS_P2;Temp;Humidity;BMP_temperature;BMP_pressure;BME280_temperature;BME280_humidity;BME280_pressure;Samples;Min_cycle;Max_cycle;Signal;HPM_P1;HPM_P2
2023/01/01 00:02:01;;;;;;;3.75;2.30;;;;;;;16.80;54.81;97292.63;4902523;28;20173;-76
2023/01/01 00:04:27;;;;;;;3.30;2.65;;;;;;;16.74;54.78;97293.75;4920475;28;20316;-77
2023/01/01 00:06:53;;;;;;;3.22;2.22;;;;;;;16.58;55.15;97292.38;4907276;28;20212;-76
2023/01/01 00:12:02;;;;;;;3.55;2.28;;;;;;;16.89;54.68;97294.66;4934216;28;20208;-78
2023/01/01 00:14:28;;;;;;;5.68;2.40;;;;;;;16.78;54.91;97305.28;4948399;28;20602;-76
2023/01/01 00:16:54;;;;;;;3.97;2.15;;;;;;;16.39;55.96;97305.44;4947425;28;20169;-77
2023/01/01 00:19:20;;;;;;;2.63;2.08;;;;;;;16.72;55.20;97303.75;4926070;28;20258;-76
2023/01/01 00:21:45;;;;;;;3.60;2.17;;;;;;;16.42;55.89;97299.63;4919338;28;20207;-76
2023/01/01 00:24:11;;;;;;;3.17;2.13;;;;;;;16.87;55.20;97300.19;4950620;28;20207;-76
2023/01/01 00:26:36;;;;;;;4.25;2.45;;;;;;;17.02;54.85;97297.38;4951091;28;20212;-77
2023/01/01 00:29:03;;;;;;;3.55;1.77;;;;;;;16.78;55.37;97289.50;4951199;28;20191;-77
2023/01/01 00:31:28;;;;;;;3.10;1.98;;;;;;;16.76;55.26;97290.81;4950983;28;20615;-77
2023/01/01 00:33:58;;;;;;;3.58;2.38;;;;;;;16.44;55.91;97295.66;4960851;28;20283;-76
2023/01/01 00:36:25;;;;;;;3.08;1.92;;;;;;;16.61;55.68;97300.47;4902134;28;20689;-76
2023/01/01 00:38:50;;;;;;;2.70;2.00;;;;;;;16.29;55.94;97288.69;4933906;28;20284;-77
2023/01/01 00:41:16;;;;;;;2.38;1.90;;;;;;;16.72;55.18;97295.09;4917976;28;20388;-75
2023/01/01 00:43:42;;;;;;;1.92;1.63;;;;;;;16.32;56.21;97276.88;4969394;28;20157;-76
2023/01/01 00:46:08;;;;;;;4.97;2.17;;;;;;;16.85;54.83;97295.22;4960032;28;20480;-77
2023/01/01 00:48:34;;;;;;;2.28;1.83;;;;;;;16.65;55.40;97290.19;4928252;28;20205;-75
2023/01/01 00:50:59;;;;;;;4.55;2.10;;;;;;;16.76;55.09;97293.47;4914908;28;20174;-76
2023/01/01 00:53:25;;;;;;;7.22;2.15;;;;;;;16.84;54.63;97285.78;4915305;28;20192;-75
2023/01/01 00:55:51;;;;;;;2.67;1.73;;;;;;;16.93;54.52;97285.94;4931310;28;20277;-75
2023/01/01 00:58:17;;;;;;;2.28;1.73;;;;;;;16.93;54.53;97285.94;4913985;28;20221;-76
2023/01/01 01:00:45;;;;;;;2.15;1.77;;;;;;;16.84;55.06;97287.59;4914743;28;20240;-76
2023/01/01 01:03:26;;;;;;;3.97;1.80;;;;;;;16.65;55.25;97280.44;4915518;28;20212;-76
2023/01/01 01:06:02;;;;;;;4.13;1.85;;;;;;;17.03;54.24;97282.38;4932618;28;20197;-77
2023/01/01 01:08:29;;;;;;;4.00;1.92;;;;;;;16.89;54.21;97282.28;4931985;28;20182;-77
2023/01/01 01:10:55;;;;;;;3.17;1.60;;;;;;;17.12;53.77;97285.16;4947011;28;20347;-77
2023/01/01 01:13:20;;;;;;;3.85;2.05;;;;;;;17.00;54.04;97281.09;4932803;28;20165;-76
2023/01/01 01:15:46;;;;;;;3.22;1.55;;;;;;;16.87;54.08;97281.78;4933929;28;20192;-77
2023/01/01 01:18:12;;;;;;;2.88;1.70;;;;;;;16.66;54.46;97297.00;4949031;28;20180;-76
2023/01/01 01:20:37;;;;;;;2.20;1.70;;;;;;;16.97;53.89;97281.66;4933344;28;20199;-76
2023/01/01 01:23:03;;;;;;;4.18;1.88;;;;;;;16.78;53.84;97284.25;4930070;28;20567;-76
2023/01/01 01:25:28;;;;;;;2.90;1.73;;;;;;;16.75;53.99;97284.03;4949069;28;20197;-75
2023/01/01 01:27:53;;;;;;;2.40;1.50;;;;;;;16.71;54.23;97289.06;4926154;28;20294;-76
2023/01/01 01:30:19;;;;;;;3.25;1.90;;;;;;;16.84;53.88;97282.34;4940279;28;20205;-76
2023/01/01 01:32:44;;;;;;;3.70;1.58;;;;;;;17.08;53.04;97277.03;4913213;28;20714;-75
2023/01/01 01:35:09;;;;;;;3.08;1.58;;;;;;;16.75;53.91;97265.63;4933036;28;20184;-77
2023/01/01 01:37:35;;;;;;;3.17;1.92;;;;;;;16.69;53.93;97278.06;4964874;28;20211;-76
2023/01/01 01:40:00;;;;;;;3.47;1.63;;;;;;;16.86;53.55;97269.69;4917323;28;20279;-76
2023/01/01 01:42:28;;;;;;;1.85;1.27;;;;;;;16.73;53.80;97270.38;4928859;28;20287;-75
2023/01/01 01:44:56;;;;;;;2.10;1.35;;;;;;;16.89;53.51;97279.66;4913392;28;20212;-77
2023/01/01 01:47:43;;;;;;;1.55;1.35;;;;;;;16.91;53.40;97279.38;4949224;28;20265;-75
2023/01/01 01:50:23;;;;;;;2.65;1.85;;;;;;;17.31;52.61;97285.94;4968087;28;20544;-77
2023/01/01 01:53:05;;;;;;;2.08;1.63;;;;;;;17.27;52.22;97282.31;4949391;28;20212;-76
2023/01/01 01:55:34;;;;;;;3.53;2.20;;;;;;;16.93;53.26;97282.50;4930861;28;20769;-75
2023/01/01 01:57:59;;;;;;;4.38;2.03;;;;;;;16.66;53.26;97292.53;4946711;28;20422;-76
2023/01/01 02:00:24;;;;;;;3.75;1.88;;;;;;;16.78;53.67;97289.50;4913635;28;20287;-76
2023/01/01 02:03:16;;;;;;;2.22;1.58;;;;;;;17.13;52.57;97297.25;4947055;28;20219;-76
2023/01/01 02:05:42;;;;;;;2.05;1.40;;;;;;;16.77;52.94;97301.06;4912906;28;20209;-76
2023/01/01 02:08:09;;;;;;;3.28;2.00;;;;;;;16.64;53.56;97292.03;4946659;28;20235;-77
2023/01/01 02:10:34;;;;;;;2.45;1.70;;;;;;;16.85;52.43;97292.59;4937562;28;20203;-77
2023/01/01 02:12:59;;;;;;;4.55;1.75;;;;;;;16.81;52.85;97280.25;4912604;28;20249;-78
2023/01/01 02:15:29;;;;;;;2.40;1.63;;;;;;;16.63;53.09;97300.97;4932404;28;20169;-77
2023/01/01 02:18:00;;;;;;;3.10;1.95;;;;;;;16.65;52.79;97298.84;4931937;28;20330;-76
2023/01/01 02:20:47;;;;;;;3.35;1.50;;;;;;;16.88;52.72;97304.41;4945993;28;20311;-77
2023/01/01 02:23:38;;;;;;;4.35;1.40;;;;;;;16.80;52.47;97302.38;4930020;28;20287;-76
2023/01/01 02:26:17;;;;;;;2.25;1.80;;;;;;;16.78;52.31;97315.03;4916257;28;20136;-76
2023/01/01 02:29:00;;;;;;;3.60;1.80;;;;;;;17.06;51.71;97307.34;4931766;28;20317;-76
2023/01/01 02:31:29;;;;;;;4.15;1.95;;;;;;;16.57;52.83;97312.63;4948588;28;20278;-75
2023/01/01 02:33:58;;;;;;;3.72;1.63;;;;;;;16.76;52.20;97304.78;4915857;28;20181;-76
2023/01/01 02:36:25;;;;;;;1.88;1.40;;;;;;;16.95;51.79;97304.84;4912699;28;20296;-76
2023/01/01 02:38:53;;;;;;;3.45;1.80;;;;;;;16.89;51.87;97316.47;4897152;28;20188;-76
2023/01/01 02:41:20;;;;;;;3.42;1.65;;;;;;;16.70;52.13;97305.13;4944646;28;20199;-78
2023/01/01 02:43:45;;;;;;;4.18;1.77;;;;;;;16.79;51.54;97308.69;4940290;28;20193;-76
2023/01/01 02:46:11;;;;;;;5.70;1.50;;;;;;;16.47;52.26;97307.47;4930302;28;20648;-77
2023/01/01 02:48:48;;;;;;;3.25;1.85;;;;;;;16.65;52.13;97305.94;4928365;28;20190;-75
2023/01/01 02:51:13;;;;;;;2.90;1.80;;;;;;;16.67;52.09;97317.75;4907355;28;20208;-77
2023/01/01 02:53:57;;;;;;;1.63;1.45;;;;;;;17.10;51.03;97313.59;4967048;28;20268;-75
2023/01/01 02:57:03;;;;;;;1.92;1.67;;;;;;;16.50;52.31;97322.66;4966272;28;20287;-76
2023/01/01 03:02:26;;;;;;;3.15;1.55;;;;;;;16.96;51.24;97332.69;4934936;28;20469;-77
2023/01/01 03:05:14;;;;;;;1.75;1.52;;;;;;;16.60;51.92;97335.69;4931924;28;20518;-74
2023/01/01 03:08:13;;;;;;;3.03;1.73;;;;;;;17.00;51.52;97323.19;4944503;28;20282;-76
2023/01/01 03:11:03;;;;;;;2.70;1.50;;;;;;;16.89;51.47;97327.00;4933265;28;20292;-76
2023/01/01 03:14:02;;;;;;;2.47;1.48;;;;;;;16.85;51.68;97326.78;4959749;28;20303;-76
2023/01/01 03:16:35;;;;;;;3.90;1.50;;;;;;;16.57;52.42;97320.50;4966433;28;20398;-76
2023/01/01 03:19:11;;;;;;;2.58;1.60;;;;;;;16.60;52.52;97322.56;4948208;28;20659;-76
2023/01/01 03:22:02;;;;;;;2.65;1.50;;;;;;;16.53;52.57;97327.38;4943229;28;20704;-76
2023/01/01 03:24:37;;;;;;;5.38;1.77;;;;;;;16.81;51.85;97324.94;4951513;28;20311;-76
2023/01/01 03:27:08;;;;;;;4.72;1.90;;;;;;;16.71;52.16;97320.63;4947434;28;20769;-76
2023/01/01 03:29:37;;;;;;;1.90;1.50;;;;;;;16.26;53.20;97323.44;4924239;28;20386;-75
2023/01/01 03:32:04;;;;;;;2.28;1.80;;;;;;;16.51;52.78;97329.50;4929870;28;20200;-75
2023/01/01 03:34:34;;;;;;;3.20;1.92;;;;;;;16.51;52.68;97337.38;4911744;28;20469;-75
2023/01/01 03:37:03;;;;;;;4.80;1.83;;;;;;;16.48;52.92;97316.91;4946130;28;20287;-76
2023/01/01 03:39:33;;;;;;;2.13;1.65;;;;;;;16.77;52.13;97326.59;4927237;28;20205;-75
2023/01/01 03:42:07;;;;;;;2.75;1.85;;;;;;;16.64;52.61;97326.19;4928042;28;20213;-76
2023/01/01 03:44:37;;;;;;;3.75;1.63;;;;;;;16.41;53.15;97325.13;4939518;28;20277;-76
2023/01/01 03:47:04;;;;;;;3.83;2.17;;;;;;;16.45;53.01;97325.34;4944607;28;20199;-77
2023/01/01 03:49:29;;;;;;;2.58;1.60;;;;;;;16.18;53.33;97318.00;4935315;28;20270;-75
2023/01/01 03:51:56;;;;;;;2.95;1.77;;;;;;;16.38;52.98;97330.16;4928367;28;20729;-75
2023/01/01 03:54:41;;;;;;;2.38;1.42;;;;;;;16.70;52.43;97313.78;4927700;28;20205;-76
2023/01/01 03:57:12;;;;;;;3.03;1.48;;;;;;;16.63;52.75;97327.25;4948834;28;20220;-75
2023/01/01 03:59:49;;;;;;;3.25;1.60;;;;;;;16.84;52.36;97327.88;4947682;28;20203;-76
2023/01/01 04:02:18;;;;;;;5.05;1.67;;;;;;;16.67;52.53;97323.03;4928435;28;20357;-76
2023/01/01 04:04:46;;;;;;;4.88;1.63;;;;;;;16.35;52.91;97317.56;4948075;28;20314;-76
2023/01/01 04:07:11;;;;;;;4.53;1.77;;;;;;;16.56;52.49;97321.56;4947243;28;20581;-76
2023/01/01 04:09:39;;;;;;;4.07;1.50;;;;;;;16.69;52.44;97320.13;4913610;28;20166;-75
2023/01/01 04:12:04;;;;;;;2.55;1.27;;;;;;;16.72;52.55;97321.38;4947004;28;20286;-77
2023/01/01 04:14:30;;;;;;;7.22;1.58;;;;;;;16.44;52.76;97321.94;4945168;28;20208;-76
2023/01/01 04:16:56;;;;;;;3.85;1.40;;;;;;;16.56;52.62;97332.06;4965599;28;20205;-74
2023/01/01 04:19:21;;;;;;;3.80;1.75;;;;;;;16.29;53.49;97335.22;4946626;28;20208;-76
2023/01/01 04:21:47;;;;;;;2.28;1.60;;;;;;;16.29;53.63;97325.47;4940704;28;20494;-76
2023/01/01 04:24:13;;;;;;;2.53;1.45;;;;;;;16.17;53.53;97338.22;4929871;28;20288;-75
2023/01/01 04:26:39;;;;;;;4.38;1.70;;;;;;;16.31;53.29;97350.72;4965508;28;20268;-75
2023/01/01 04:29:04;;;;;;;4.38;1.60;;;;;;;16.13;53.97;97337.22;4930708;28;20298;-77
2023/01/01 04:31:29;;;;;;;3.78;1.88;;;;;;;15.98;54.09;97329.44;4915698;28;20282;-75
2023/01/01 04:33:55;;;;;;;3.88;1.38;;;;;;;16.09;53.91;97336.19;4939325;28;20145;-77
2023/01/01 04:36:20;;;;;;;2.35;1.52;;;;;;;16.45;52.99;97343.72;4926967;28;20247;-77
2023/01/01 04:38:45;;;;;;;6.25;2.63;;;;;;;16.67;52.15;97330.91;4946557;28;20223;-76
2023/01/01 04:41:11;;;;;;;3.55;1.40;;;;;;;16.64;52.22;97341.97;4911055;28;20216;-74
2023/01/01 04:43:36;;;;;;;4.85;1.50;;;;;;;16.65;52.10;97350.63;4911629;28;20295;-76
2023/01/01 04:46:02;;;;;;;4.25;1.50;;;;;;;16.60;52.37;97348.84;4936092;28;20276;-76
2023/01/01 04:48:29;;;;;;;2.05;1.60;;;;;;;16.44;52.91;97347.44;4926631;28;20245;-78
2023/01/01 04:50:59;;;;;;;4.15;1.80;;;;;;;16.38;52.90;97346.72;4911876;28;20679;-76
2023/01/01 04:53:27;;;;;;;3.78;1.30;;;;;;;16.27;53.02;97339.97;4927872;28;20667;-75
2023/01/01 04:55:52;;;;;;;3.13;1.63;;;;;;;16.51;52.56;97347.88;4927180;28;20173;-76
2023/01/01 04:58:18;;;;;;;3.30;1.40;;;;;;;16.34;53.07;97352.78;4947253;28;20708;-75
2023/01/01 05:00:48;;;;;;;2.92;1.40;;;;;;;16.23;53.17;97355.50;4930959;28;20402;-75
2023/01/01 05:03:14;;;;;;;3.30;1.20;;;;;;;16.07;53.68;97354.88;4931516;28;20294;-76
2023/01/01 05:05:39;;;;;;;2.10;1.40;;;;;;;16.13;53.57;97352.97;4947283;28;20269;-76
2023/01/01 05:08:04;;;;;;;3.92;1.40;;;;;;;16.28;52.86;97360.72;4933030;28;20246;-76
2023/01/01 05:10:30;;;;;;;1.73;1.60;;;;;;;16.38;52.29;97364.31;4945364;28;20187;-76
2023/01/01 05:12:55;;;;;;;2.08;1.42;;;;;;;16.34;53.01;97373.81;4932381;28;20290;-76
2023/01/01 05:15:20;;;;;;;3.15;1.20;;;;;;;15.98;53.62;97371.47;4947792;28;20222;-76
2023/01/01 05:17:46;;;;;;;2.47;1.38;;;;;;;15.91;53.68;97372.56;4926280;28;20279;-76
2023/01/01 05:20:11;;;;;;;4.63;1.33;;;;;;;15.87;53.92;97371.53;4932051;28;20589;-75
2023/01/01 05:22:36;;;;;;;2.40;1.20;;;;;;;16.10;53.23;97369.28;4943013;28;20283;-75
2023/01/01 05:25:02;;;;;;;3.28;1.30;;;;;;;15.95;53.11;97385.16;4943241;28;20284;-76
2023/01/01 05:27:27;;;;;;;4.50;1.77;;;;;;;16.16;52.92;97383.94;4950059;28;20239;-75
2023/01/01 05:29:53;;;;;;;4.90;1.25;;;;;;;16.47;52.12;97394.97;4916691;28;20252;-75
2023/01/01 05:32:18;;;;;;;4.18;1.75;;;;;;;16.33;52.52;97399.31;4950044;28;20258;-76
2023/01/01 05:34:43;;;;;;;3.30;1.08;;;;;;;16.15;52.66;97398.13;4961862;28;20192;-76
2023/01/01 05:37:09;;;;;;;3.03;1.20;;;;;;;16.10;52.97;97395.53;4947506;28;20208;-77
2023/01/01 05:39:36;;;;;;;2.67;1.23;;;;;;;16.35;52.31;97399.00;4912067;28;20201;-77
2023/01/01 05:42:01;;;;;;;3.95;1.40;;;;;;;16.50;51.50;97401.50;4911415;28;20737;-77
2023/01/01 05:44:27;;;;;;;1.27;1.10;;;;;;;16.55;51.74;97406.72;4913935;28;20218;-77
2023/01/01 05:46:52;;;;;;;4.07;1.65;;;;;;;16.36;52.08;97408.47;4925929;28;20686;-77
2023/01/01 05:49:17;;;;;;;6.28;1.75;;;;;;;16.41;52.14;97400.53;4933426;28;20268;-76
2023/01/01 05:51:43;;;;;;;2.42;1.60;;;;;;;16.31;52.21;97405.88;4933145;28;20307;-76
2023/01/01 05:54:08;;;;;;;2.67;1.70;;;;;;;16.42;51.65;97405.53;4949834;28;20169;-76
2023/01/01 05:56:34;;;;;;;3.85;1.38;;;;;;;16.09;52.67;97399.22;4933104;28;20134;-75
2023/01/01 05:58:59;;;;;;;1.85;1.20;;;;;;;16.15;52.61;97392.88;4912885;28;20271;-76
2023/01/01 06:01:27;;;;;;;4.03;1.58;;;;;;;16.10;52.57;97395.53;4929370;28;20701;-77
2023/01/01 06:03:53;;;;;;;4.32;1.63;;;;;;;16.06;52.74;97399.78;4929345;28;20203;-76
2023/01/01 06:06:31;;;;;;;4.65;1.90;;;;;;;16.23;52.42;97423.03;4897014;28;20213;-77
2023/01/01 06:09:02;;;;;;;4.22;1.98;;;;;;;16.32;52.13;97420.59;4940800;28;20201;-77
2023/01/01 06:11:27;;;;;;;2.70;1.55;;;;;;;15.63;53.17;97418.66;4902500;28;20246;-76
2023/01/01 06:13:54;;;;;;;4.63;1.45;;;;;;;16.24;52.38;97414.84;4933319;28;20283;-77
2023/01/01 06:16:20;;;;;;;4.93;2.15;;;;;;;16.03;52.65;97418.72;4932125;28;20661;-76
2023/01/01 06:18:45;;;;;;;3.78;1.50;;;;;;;15.84;53.27;97419.34;4914483;28;20226;-75
2023/01/01 06:21:13;;;;;;;4.47;1.58;;;;;;;16.14;52.21;97414.94;4914549;28;20203;-77
2023/01/01 06:23:39;;;;;;;1.80;1.27;;;;;;;15.99;52.73;97422.94;4913159;28;20363;-77
2023/01/01 06:26:14;;;;;;;5.53;1.77;;;;;;;16.26;52.20;97419.84;4935096;28;20705;-77
2023/01/01 06:28:40;;;;;;;5.75;2.25;;;;;;;15.81;53.18;97422.50;4934851;28;20170;-76
2023/01/01 06:31:08;;;;;;;3.28;1.30;;;;;;;15.93;52.98;97434.53;4924076;28;20216;-76
2023/01/01 06:33:34;;;;;;;3.78;1.73;;;;;;;15.65;53.42;97426.25;4943577;28;20166;-77
2023/01/01 06:36:03;;;;;;;4.97;1.70;;;;;;;16.06;52.34;97436.56;4897313;28;20102;-77
2023/01/01 06:38:33;;;;;;;4.25;1.70;;;;;;;15.97;52.79;97443.44;4931053;28;20283;-76
2023/01/01 06:41:00;;;;;;;2.95;1.40;;;;;;;15.71;53.30;97440.91;4927955;28;20204;-76
2023/01/01 06:43:26;;;;;;;2.83;1.77;;;;;;;15.97;52.75;97449.47;4923412;28;20649;-75
2023/01/01 06:46:18;;;;;;;3.60;1.50;;;;;;;16.03;52.58;97442.34;4922864;28;20191;-75
2023/01/01 06:48:45;;;;;;;5.55;1.23;;;;;;;15.53;53.25;97443.09;4944499;28;20674;-76
2023/01/01 06:51:19;;;;;;;3.70;1.38;;;;;;;15.78;52.99;97451.97;4928738;28;20247;-76
2023/01/01 06:53:45;;;;;;;1.83;1.25;;;;;;;15.86;52.89;97458.47;4929813;28;20308;-76
2023/01/01 06:56:11;;;;;;;4.85;2.40;;;;;;;15.80;52.87;97455.09;4910279;28;20607;-76
2023/01/01 06:58:36;;;;;;;4.95;1.70;;;;;;;15.66;52.82;97448.81;4947622;28;20196;-75
2023/01/01 07:01:08;;;;;;;2.85;1.15;;;;;;;15.85;52.58;97449.81;4928670;28;20201;-77
2023/01/01 07:03:33;;;;;;;2.47;1.48;;;;;;;15.81;52.50;97451.41;4912431;28;20140;-77
2023/01/01 07:05:59;;;;;;;3.45;1.50;;;;;;;15.76;52.51;97450.66;4929340;28;20579;-76
2023/01/01 07:08:24;;;;;;;5.07;2.03;;;;;;;15.63;53.06;97467.75;4948054;28;20272;-75
2023/01/01 07:10:49;;;;;;;3.35;1.50;;;;;;;15.35;53.40;97455.00;4933137;28;20212;-75
2023/01/01 07:13:15;;;;;;;4.18;1.58;;;;;;;15.60;53.26;97460.41;4946856;28;20251;-77
2023/01/01 07:15:40;;;;;;;4.55;1.58;;;;;;;15.60;52.83;97466.44;4947416;28;20646;-75
2023/01/01 07:18:05;;;;;;;4.68;1.60;;;;;;;15.80;52.51;97462.97;4930903;28;20406;-76
2023/01/01 07:20:31;;;;;;;1.42;1.10;;;;;;;15.72;52.52;97479.25;4948030;28;20271;-76
2023/01/01 07:22:56;;;;;;;3.25;2.00;;;;;;;15.79;52.27;97481.63;4947127;28;20227;-77
2023/01/01 07:25:21;;;;;;;2.38;1.45;;;;;;;15.74;52.37;97492.88;4921073;28;20299;-76
2023/01/01 07:27:47;;;;;;;3.03;1.23;;;;;;;15.70;52.53;97505.78;4903751;28;20328;-76
2023/01/01 07:30:12;;;;;;;4.43;1.40;;;;;;;15.75;52.22;97491.88;4931522;28;20184;-75
2023/01/01 07:32:38;;;;;;;2.95;1.40;;;;;;;15.69;52.57;97492.91;4925552;28;20259;-77
2023/01/01 07:35:03;;;;;;;3.05;1.30;;;;;;;15.89;52.12;97500.72;4931091;28;20669;-76
2023/01/01 07:37:29;;;;;;;4.25;1.50;;;;;;;15.45;53.04;97484.88;4944425;28;20204;-76
2023/01/01 07:39:54;;;;;;;3.95;1.20;;;;;;;15.57;52.76;97487.19;4913170;28;20307;-76
2023/01/01 07:42:20;;;;;;;4.72;1.58;;;;;;;15.34;53.22;97495.41;4911647;28;20360;-76
2023/01/01 07:44:45;;;;;;;5.43;1.80;;;;;;;15.78;52.76;97499.22;4918111;28;20626;-75
2023/01/01 07:47:22;;;;;;;12.90;2.67;;;;;;;15.54;52.61;97491.13;4925485;28;20292;-76
2023/01/01 07:49:47;;;;;;;5.38;1.83;;;;;;;15.45;52.71;97495.38;4960923;28;20733;-76
2023/01/01 07:52:13;;;;;;;4.13;1.65;;;;;;;15.60;52.19;97497.94;4928606;28;20366;-76
2023/01/01 07:54:38;;;;;;;2.63;1.30;;;;;;;15.78;52.02;97501.03;4912005;28;20652;-75
2023/01/01 07:57:04;;;;;;;2.83;1.50;;;;;;;15.90;52.06;97504.94;4928767;28;20218;-77
2023/01/01 07:59:29;;;;;;;3.55;1.63;;;;;;;15.57;52.54;97505.56;4947497;28;20181;-76
2023/01/01 08:01:55;;;;;;;4.20;2.05;;;;;;;15.78;51.85;97509.72;4930905;28;20185;-76
2023/01/01 08:04:20;;;;;;;6.85;1.90;;;;;;;15.84;52.03;97502.59;4947841;28;20287;-76
2023/01/01 08:06:46;;;;;;;4.60;1.77;;;;;;;15.84;51.55;97503.38;4947811;28;20238;-75
2023/01/01 08:09:11;;;;;;;4.72;1.35;;;;;;;15.75;52.09;97489.25;4946628;28;20661;-75
2023/01/01 08:11:36;;;;;;;3.15;1.10;;;;;;;15.61;52.45;97493.47;4947924;28;20292;-76
2023/01/01 08:14:02;;;;;;;5.95;1.48;;;;;;;15.46;52.86;97502.19;4947005;28;20204;-76
2023/01/01 08:16:27;;;;;;;2.70;1.40;;;;;;;15.72;52.10;97493.16;4924622;28;20721;-77
2023/01/01 08:18:52;;;;;;;4.88;1.45;;;;;;;16.00;51.63;97496.19;4912032;28;20196;-76
2023/01/01 08:21:18;;;;;;;3.50;1.95;;;;;;;15.95;51.58;97498.06;4913700;28;20439;-77
2023/01/01 08:23:43;;;;;;;4.53;1.52;;;;;;;15.81;51.79;97503.91;4965592;28;20162;-77
2023/01/01 08:26:16;;;;;;;4.32;2.03;;;;;;;15.88;51.91;97504.38;4917097;28;20337;-76
2023/01/01 08:28:41;;;;;;;4.30;1.65;;;;;;;15.67;52.19;97510.78;4930226;28;20200;-74
2023/01/01 08:31:07;;;;;;;4.00;1.70;;;;;;;15.72;52.02;97511.53;4925092;28;20693;-76
2023/01/01 08:33:32;;;;;;;3.70;1.45;;;;;;;15.73;52.23;97509.72;4942208;28;20205;-76
2023/01/01 08:35:59;;;;;;;3.63;1.40;;;;;;;15.52;52.36;97512.41;4929972;28;20296;-76
2023/01/01 08:38:25;;;;;;;3.85;1.80;;;;;;;15.93;51.52;97515.94;4930266;28;20402;-76
2023/01/01 08:40:51;;;;;;;4.82;1.77;;;;;;;15.96;51.75;97515.41;4923785;28;20692;-76
2023/01/01 08:43:16;;;;;;;4.50;1.60;;;;;;;15.79;51.98;97511.28;4916909;28;20197;-75
2023/01/01 08:45:42;;;;;;;2.53;1.05;;;;;;;15.92;51.80;97523.03;4948595;28;20179;-77
2023/01/01 08:48:07;;;;;;;4.22;1.70;;;;;;;15.80;52.11;97528.59;4916840;28;20311;-75
2023/01/01 08:50:32;;;;;;;5.65;1.83;;;;;;;15.47;52.28;97530.78;4930587;28;20250;-76
2023/01/01 08:52:58;;;;;;;3.92;1.50;;;;;;;16.09;51.38;97520.84;4918780;28;20208;-76
2023/01/01 08:55:23;;;;;;;3.22;1.55;;;;;;;16.27;50.84;97519.41;4935154;28;20192;-77
2023/01/01 08:57:49;;;;;;;5.03;1.40;;;;;;;16.09;51.36;97530.56;4918049;28;20203;-76
2023/01/01 09:00:15;;;;;;;3.53;1.33;;;;;;;16.28;51.04;97528.88;4949669;28;20204;-77
2023/01/01 09:02:41;;;;;;;5.88;1.83;;;;;;;16.46;50.69;97529.28;4910598;28;20710;-76
2023/01/01 09:05:07;;;;;;;2.85;1.63;;;;;;;16.53;50.73;97527.13;4934312;28;20197;-77
2023/01/01 09:07:32;;;;;;;5.60;1.70;;;;;;;16.62;49.87;97541.28;4957646;28;20110;-77
2023/01/01 09:09:57;;;;;;;1.92;1.10;;;;;;;16.69;50.35;97543.59;4917548;28;20735;-76
2023/01/01 09:12:23;;;;;;;3.95;1.67;;;;;;;16.47;50.44;97541.38;4947514;28;20713;-77
2023/01/01 09:14:48;;;;;;;4.00;1.30;;;;;;;16.14;50.78;97540.25;4915694;28;20203;-76
2023/01/01 09:17:14;;;;;;;2.05;1.40;;;;;;;16.21;51.84;97552.06;4927908;28;20259;-76
2023/01/01 09:19:39;;;;;;;3.33;1.73;;;;;;;16.58;50.36;97548.13;4918245;28;20190;-77
2023/01/01 09:22:09;;;;;;;3.83;1.77;;;;;;;16.64;50.79;97549.66;4966614;28;20414;-77
2023/01/01 09:24:34;;;;;;;3.20;1.50;;;;;;;16.64;50.63;97554.16;4946314;28;20221;-77
2023/01/01 09:26:59;;;;;;;4.28;1.80;;;;;;;16.82;50.08;97553.47;4928332;28;20197;-77
2023/01/01 09:29:24;;;;;;;3.63;1.55;;;;;;;16.93;50.06;97550.78;4942662;28;20188;-77
2023/01/01 09:31:50;;;;;;;3.60;1.67;;;;;;;16.88;49.93;97562.16;4923715;28;20229;-77
2023/01/01 09:34:16;;;;;;;4.28;1.75;;;;;;;16.56;50.92;97565.25;4927847;28;20177;-77
2023/01/01 09:36:42;;;;;;;4.65;1.58;;;;;;;16.66;50.55;97571.22;4934529;28;20311;-77
2023/01/01 09:39:10;;;;;;;4.65;1.88;;;;;;;16.43;50.67;97572.69;4917138;28;20191;-76
2023/01/01 09:41:35;;;;;;;3.55;1.75;;;;;;;16.89;49.80;97568.19;4937631;28;20444;-77
2023/01/01 09:44:14;;;;;;;3.90;1.73;;;;;;;17.14;50.20;97575.09;4944854;28;20792;-76
2023/01/01 09:46:39;;;;;;;7.03;1.90;;;;;;;16.79;50.55;97582.16;4928819;28;20311;-76
2023/01/01 09:49:12;;;;;;;5.22;1.60;;;;;;;16.94;50.48;97576.81;4950687;28;20200;-75
2023/01/01 09:51:39;;;;;;;4.40;1.42;;;;;;;16.81;49.97;97585.28;4936150;28;20184;-77
2023/01/01 09:54:26;;;;;;;4.35;1.77;;;;;;;17.06;49.75;97580.94;4931315;28;20184;-77
2023/01/01 09:56:54;;;;;;;2.15;1.52;;;;;;;17.26;49.08;97586.03;4918119;28;20165;-77
2023/01/01 09:59:20;;;;;;;4.22;1.80;;;;;;;17.26;49.65;97583.41;4950671;28;20202;-77
2023/01/01 10:02:04;;;;;;;4.70;1.50;;;;;;;16.92;50.07;97578.94;4948189;28;20327;-75
2023/01/01 10:04:36;;;;;;;3.80;1.70;;;;;;;17.11;49.05;97570.38;4931995;28;20114;-76
2023/01/01 10:07:38;;;;;;;4.45;1.70;;;;;;;17.10;49.93;97574.06;4933741;28;20582;-76
2023/01/01 10:10:21;;;;;;;3.40;2.08;;;;;;;17.38;48.68;97562.75;4945574;28;20158;-76
2023/01/01 10:12:48;;;;;;;5.32;1.27;;;;;;;17.00;49.95;97553.91;4948180;28;20202;-77
2023/01/01 10:15:28;;;;;;;5.32;1.40;;;;;;;17.35;49.02;97552.00;4931117;28;20346;-76
2023/01/01 10:17:57;;;;;;;3.35;1.52;;;;;;;17.34;49.11;97556.47;4949614;28;20710;-77
2023/01/01 10:20:25;;;;;;;3.90;1.67;;;;;;;17.18;49.61;97544.53;4927453;28;20189;-75
2023/01/01 10:22:54;;;;;;;4.88;1.80;;;;;;;17.29;49.80;97550.47;4949680;28;20306;-77
2023/01/01 10:25:20;;;;;;;5.88;1.67;;;;;;;17.40;48.77;97547.44;4929977;28;20247;-75
2023/01/01 10:27:52;;;;;;;4.28;1.33;;;;;;;17.17;49.53;97549.00;4925874;28;20787;-76
2023/01/01 10:30:20;;;;;;;4.47;1.48;;;;;;;17.33;49.10;97548.84;4934325;28;20184;-77
2023/01/01 10:32:51;;;;;;;2.85;1.77;;;;;;;17.22;49.40;97548.16;4949627;28;20299;-76
2023/01/01 10:35:30;;;;;;;4.03;1.40;;;;;;;17.26;48.68;97533.41;4933993;28;20698;-76
2023/01/01 10:37:58;;;;;;;5.25;1.40;;;;;;;17.66;48.26;97547.19;4930824;28;20751;-77
2023/01/01 10:40:26;;;;;;;7.78;2.58;;;;;;;17.43;48.54;97540.84;4949832;28;20200;-77
2023/01/01 10:42:53;;;;;;;3.53;1.42;;;;;;;17.66;48.20;97551.66;4945105;28;20666;-77
2023/01/01 10:45:42;;;;;;;6.10;1.80;;;;;;;17.63;48.76;97553.00;4940393;28;20645;-77
2023/01/01 10:48:10;;;;;;;7.35;2.35;;;;;;;17.55;49.06;97558.91;4916668;28;20330;-77
2023/01/01 10:50:44;;;;;;;4.05;1.52;;;;;;;17.43;49.34;97554.03;4916532;28;20629;-76
2023/01/01 10:53:27;;;;;;;5.95;1.83;;;;;;;17.63;48.17;97568.03;4948430;28;20207;-76
2023/01/01 10:56:10;;;;;;;5.53;1.60;;;;;;;17.65;48.47;97569.31;4947189;28;20339;-77
2023/01/01 10:58:36;;;;;;;3.88;1.80;;;;;;;17.49;48.85;97565.28;4931101;28;20619;-77
2023/01/01 11:01:03;;;;;;;3.42;2.20;;;;;;;17.51;48.48;97571.03;4938128;28;20213;-77
2023/01/01 11:03:29;;;;;;;5.68;1.67;;;;;;;17.41;49.39;97570.09;4915295;28;20617;-76
2023/01/01 11:06:16;;;;;;;5.85;2.17;;;;;;;17.33;49.23;97578.59;4931361;28;20200;-77
2023/01/01 11:08:49;;;;;;;8.27;1.73;;;;;;;17.51;48.71;97566.56;4929418;28;20174;-77
2023/01/01 11:11:20;;;;;;;3.90;1.60;;;;;;;17.57;48.71;97565.44;4933234;28;20169;-77
2023/01/01 11:13:51;;;;;;;5.18;1.85;;;;;;;17.62;48.69;97559.34;4944468;28;20204;-77
2023/01/01 11:16:16;;;;;;;3.67;1.90;;;;;;;17.40;48.81;97557.22;4947965;28;20641;-77
2023/01/01 11:18:42;;;;;;;3.80;1.90;;;;;;;17.10;49.65;97542.47;4949033;28;20187;-75
2023/01/01 11:21:07;;;;;;;5.38;1.60;;;;;;;17.26;49.30;97538.66;4930713;28;20362;-77
2023/01/01 11:23:39;;;;;;;7.72;1.75;;;;;;;17.60;48.82;97538.56;4930072;28;20570;-77
2023/01/01 11:26:16;;;;;;;7.03;1.75;;;;;;;17.55;49.03;97543.09;4934995;28;20710;-77
2023/01/01 11:28:43;;;;;;;3.83;1.77;;;;;;;17.46;48.98;97539.50;4964275;28;20204;-77
2023/01/01 11:31:19;;;;;;;4.15;1.60;;;;;;;17.32;49.24;97528.84;4939464;28;20344;-77
2023/01/01 11:33:45;;;;;;;3.60;1.52;;;;;;;17.41;49.14;97529.84;4926531;28;20279;-77
2023/01/01 11:36:19;;;;;;;5.15;2.00;;;;;;;17.60;48.99;97520.13;4935213;28;20174;-76
2023/01/01 11:38:47;;;;;;;4.40;1.73;;;;;;;17.59;48.70;97513.28;4916563;28;20181;-77
2023/01/01 11:41:13;;;;;;;2.53;1.50;;;;;;;17.60;49.22;97504.31;4925510;28;20166;-77
2023/01/01 11:43:43;;;;;;;3.00;1.85;;;;;;;17.59;49.03;97497.47;4932696;28;20254;-76
2023/01/01 11:46:11;;;;;;;5.30;1.63;;;;;;;17.66;49.19;97499.78;4932882;28;20693;-77
2023/01/01 11:48:41;;;;;;;5.32;1.90;;;;;;;17.76;49.41;97502.28;4932018;28;20647;-77